createdAt,value
2018-04-19T00:01:34.350Z,9.70
2018-04-19T00:06:52.498Z,6.40
2018-04-19T00:09:29.068Z,10.23
2018-04-19T00:17:19.574Z,10.37
2018-04-19T00:19:56.145Z,11.20
2018-04-19T00:22:25.474Z,10.27
2018-04-19T00:24:57.538Z,7.80
2018-04-19T00:27:31.913Z,8.07
2018-04-19T00:30:06.973Z,7.40
2018-04-19T00:32:42.085Z,9.77
2018-04-19T00:35:10.896Z,8.13
2018-04-19T00:37:47.689Z,11.50
2018-04-19T00:40:24.282Z,7.67
2018-04-19T00:42:55.147Z,7.60
2018-04-19T00:46:04.828Z,10.30
2018-04-19T00:48:34.411Z,9.30
2018-04-19T00:51:03.482Z,13.63
2018-04-19T00:53:34.291Z,7.97
2018-04-19T00:56:12.545Z,10.33
2018-04-19T00:58:42.514Z,11.17
2018-04-19T01:01:16.503Z,7.87
2018-04-19T01:03:55.075Z,8.10
2018-04-19T01:11:42.737Z,8.77
2018-04-19T01:14:20.587Z,9.03
2018-04-19T01:16:56.842Z,10.13
2018-04-19T01:19:28.758Z,8.60
2018-04-19T01:22:03.735Z,9.47
2018-04-19T01:24:36.160Z,8.50
2018-04-19T01:27:07.710Z,11.30
2018-04-19T01:32:26.922Z,8.67
2018-04-19T01:35:03.280Z,8.63
2018-04-19T01:37:35.853Z,7.80
2018-04-19T01:40:14.819Z,8.57
2018-04-19T01:42:49.978Z,11.50
2018-04-19T01:45:25.577Z,13.43
2018-04-19T01:53:32.101Z,9.57
2018-04-19T01:56:06.206Z,7.53
2018-04-19T01:58:42.739Z,7.73
2018-04-19T02:01:16.961Z,11.73
2018-04-19T02:03:56.265Z,9.50
2018-04-19T02:06:27.563Z,8.50
2018-04-19T02:09:03.690Z,9.03
2018-04-19T02:11:39.032Z,8.10
2018-04-19T02:14:13.400Z,10.90
2018-04-19T02:16:42.977Z,8.53
2018-04-19T02:19:18.313Z,9.70
2018-04-19T02:21:51.446Z,10.00
2018-04-19T02:24:32.483Z,12.43
2018-04-19T02:27:01.969Z,8.20
2018-04-19T02:29:32.481Z,9.97
2018-04-19T02:32:02.099Z,8.13
2018-04-19T02:34:38.000Z,9.67
2018-04-19T02:37:16.452Z,11.40
2018-04-19T02:45:05.919Z,8.63
2018-04-19T02:50:15.387Z,13.43
2018-04-19T02:52:47.188Z,9.63
2018-04-19T02:58:07.811Z,9.00
2018-04-19T03:03:33.372Z,8.00
2018-04-19T03:06:13.900Z,12.10
2018-04-19T03:08:46.845Z,7.97
2018-04-19T03:11:21.715Z,9.40
2018-04-19T03:13:51.504Z,10.17
2018-04-19T03:16:28.901Z,11.23
2018-04-19T03:24:25.391Z,8.57
2018-04-19T03:29:34.532Z,11.40
2018-04-19T03:32:12.173Z,12.07
2018-04-19T03:34:47.637Z,9.47
2018-04-19T03:40:10.351Z,9.03
2018-04-19T03:42:38.797Z,10.63
2018-04-19T03:45:07.844Z,12.83
2018-04-19T03:47:37.554Z,10.10
2018-04-19T03:50:10.152Z,9.43
2018-04-19T03:52:39.615Z,9.10
2018-04-19T03:55:08.399Z,10.43
2018-04-19T04:02:56.306Z,10.17
2018-04-19T04:05:31.027Z,9.83
2018-04-19T04:08:00.870Z,10.30
2018-04-19T04:10:39.165Z,11.17
2018-04-19T04:13:17.144Z,9.80
2018-04-19T04:21:17.243Z,12.43
2018-04-19T04:23:52.824Z,10.63
2018-04-19T04:26:21.997Z,10.73
2018-04-19T04:29:55.061Z,11.83
2018-04-19T04:32:25.994Z,10.57
2018-04-19T04:34:55.240Z,12.87
2018-04-19T04:37:34.630Z,10.97
2018-04-19T04:40:09.305Z,10.57
2018-04-19T04:42:38.117Z,8.57
2018-04-19T04:47:55.782Z,13.53
2018-04-19T04:58:38.694Z,9.63
2018-04-19T05:03:54.637Z,11.37
2018-04-19T05:06:33.111Z,12.07
2018-04-19T05:09:08.657Z,9.70
2018-04-19T05:17:07.618Z,13.27
2018-04-19T05:28:03.104Z,16.00
2018-04-19T05:30:35.377Z,11.50
2018-04-19T05:33:05.460Z,13.23
2018-04-19T05:35:35.177Z,19.13
2018-04-19T05:38:11.893Z,15.20
2018-04-19T05:43:28.260Z,11.63
2018-04-19T05:48:41.137Z,21.40
2018-04-19T05:51:20.224Z,16.57
2018-04-19T05:53:58.214Z,18.10
2018-04-19T05:56:28.175Z,18.67
2018-04-19T05:59:03.114Z,14.80
2018-04-19T06:04:29.964Z,21.23
2018-04-19T06:07:08.771Z,19.07
2018-04-19T06:09:46.969Z,16.30
2018-04-19T06:12:26.240Z,16.60
2018-04-19T06:15:01.357Z,16.27
2018-04-19T06:17:35.082Z,12.47
2018-04-19T06:20:11.622Z,12.47
2018-04-19T06:22:41.451Z,12.77
2018-04-19T06:25:21.243Z,14.80
2018-04-19T06:27:57.125Z,12.90
2018-04-19T06:30:37.409Z,14.63
2018-04-19T06:35:44.104Z,12.90
2018-04-19T06:38:22.377Z,12.10
2018-04-19T06:40:57.257Z,14.00
2018-04-19T06:43:30.658Z,14.13
2018-04-19T06:46:10.873Z,13.63
2018-04-19T06:48:48.371Z,14.77
2018-04-19T06:59:28.374Z,16.90
2018-04-19T07:02:09.550Z,20.30
2018-04-19T07:10:01.366Z,13.67
2018-04-19T07:12:43.526Z,18.97
2018-04-19T07:17:58.573Z,13.57
2018-04-19T07:20:36.702Z,15.83
2018-04-19T07:23:11.373Z,12.13
2018-04-19T07:25:43.674Z,12.53
2018-04-19T07:28:19.095Z,19.90
2018-04-19T07:30:52.494Z,17.83
2018-04-19T07:33:30.449Z,12.10
2018-04-19T07:38:37.790Z,17.07
2018-04-19T07:41:13.189Z,11.67
2018-04-19T07:43:41.649Z,11.00
2018-04-19T07:46:18.064Z,13.43
2018-04-19T07:48:57.641Z,15.10
2018-04-19T07:51:30.265Z,16.37
2018-04-19T07:54:03.749Z,9.73
2018-04-19T07:56:36.935Z,12.23
2018-04-19T07:59:10.519Z,16.73
2018-04-19T08:01:47.154Z,13.13
2018-04-19T08:04:26.718Z,15.97
2018-04-19T08:06:56.918Z,13.13
2018-04-19T08:09:32.480Z,11.47
2018-04-19T08:12:08.391Z,11.97
2018-04-19T08:14:37.635Z,14.23
2018-04-19T08:17:13.226Z,16.23
2018-04-19T08:19:42.625Z,19.80
2018-04-19T08:22:17.590Z,12.53
2018-04-19T08:24:50.033Z,11.00
2018-04-19T08:27:23.757Z,12.17
2018-04-19T08:29:57.522Z,11.50
2018-04-19T08:32:27.578Z,10.03
2018-04-19T08:34:58.902Z,11.80
2018-04-19T08:37:32.066Z,11.17
2018-04-19T08:40:01.530Z,12.77
2018-04-19T08:42:34.167Z,18.97
2018-04-19T08:50:29.169Z,18.33
2018-04-19T08:53:03.421Z,11.07
2018-04-19T08:55:35.012Z,8.83
2018-04-19T08:58:12.275Z,11.50
2018-04-19T09:00:50.690Z,9.03
2018-04-19T09:06:11.557Z,10.07
2018-04-19T09:08:42.802Z,10.27
2018-04-19T09:11:16.863Z,9.17
2018-04-19T09:13:49.950Z,11.37
2018-04-19T09:16:23.247Z,12.63
2018-04-19T09:18:56.589Z,10.17
2018-04-19T09:21:27.707Z,13.00
2018-04-19T09:24:04.518Z,13.53
2018-04-19T09:26:38.488Z,10.40
2018-04-19T09:29:10.842Z,10.03
2018-04-19T09:37:00.759Z,13.03
2018-04-19T09:39:39.660Z,11.67
2018-04-19T09:42:15.394Z,11.77
2018-04-19T09:44:56.633Z,12.00
2018-04-19T09:47:32.835Z,13.03
2018-04-19T09:50:11.550Z,12.10
2018-04-19T09:52:52.148Z,9.97
2018-04-19T09:55:30.218Z,10.83
2018-04-19T09:58:11.590Z,10.03
2018-04-19T10:00:47.048Z,9.53
2018-04-19T10:03:23.621Z,10.43
2018-04-19T10:06:02.837Z,8.23
2018-04-19T10:08:35.793Z,8.43
2018-04-19T10:11:12.606Z,8.13
2018-04-19T10:13:53.602Z,5.80
2018-04-19T10:16:30.706Z,6.97
2018-04-19T10:19:00.421Z,7.27
2018-04-19T10:24:25.903Z,5.67
2018-04-19T10:27:04.470Z,6.70
2018-04-19T10:29:43.542Z,5.80
2018-04-19T10:32:26.465Z,8.73
2018-04-19T10:35:05.184Z,8.63
2018-04-19T10:37:43.042Z,9.10
2018-04-19T10:40:19.900Z,6.50
2018-04-19T10:42:55.685Z,6.43
2018-04-19T10:45:37.792Z,8.83
2018-04-19T10:48:09.790Z,9.67
2018-04-19T10:50:53.820Z,7.53
2018-04-19T10:53:28.641Z,5.93
2018-04-19T10:58:40.483Z,9.40
2018-04-19T11:01:17.046Z,5.20
2018-04-19T11:03:53.446Z,6.90
2018-04-19T11:06:33.036Z,3.23
2018-04-19T11:09:13.841Z,5.50
2018-04-19T11:11:43.753Z,5.07
2018-04-19T11:14:18.449Z,3.30
2018-04-19T11:16:51.778Z,4.40
2018-04-19T11:19:26.508Z,4.20
2018-04-19T11:24:52.467Z,4.37
2018-04-19T11:27:26.654Z,3.70
2018-04-19T11:30:06.702Z,4.80
2018-04-19T11:32:36.784Z,5.70
2018-04-19T11:35:13.186Z,7.93
2018-04-19T11:37:53.138Z,6.57
2018-04-19T11:40:27.254Z,4.77
2018-04-19T11:43:11.851Z,6.97
2018-04-19T11:45:40.863Z,5.57
2018-04-19T11:48:16.219Z,5.33
2018-04-19T11:50:45.537Z,3.87
2018-04-19T11:53:24.400Z,4.97
2018-04-19T11:56:03.569Z,4.47
2018-04-19T11:58:41.344Z,3.40
2018-04-19T12:01:15.930Z,5.10
2018-04-19T12:12:05.727Z,3.60
2018-04-19T12:14:41.520Z,5.27
2018-04-19T12:17:15.751Z,4.37
2018-04-19T12:19:51.140Z,7.50
2018-04-19T12:22:20.224Z,3.30
2018-04-19T12:24:50.450Z,4.40
2018-04-19T12:27:23.637Z,5.90
2018-04-19T12:29:57.540Z,2.93
2018-04-19T12:32:31.658Z,5.73
2018-04-19T12:35:10.570Z,4.67
2018-04-19T12:37:42.093Z,4.23
2018-04-19T12:40:25.472Z,4.03
2018-04-19T12:42:56.083Z,3.33
2018-04-19T12:45:32.482Z,3.90
2018-04-19T12:48:09.371Z,4.23
2018-04-19T12:50:45.730Z,3.57
2018-04-19T12:55:57.443Z,7.83
2018-04-19T12:58:36.785Z,4.23
2018-04-19T13:03:51.600Z,6.67
2018-04-19T13:06:21.326Z,5.40
2018-04-19T13:08:56.594Z,5.17
2018-04-19T13:11:31.938Z,3.80
2018-04-19T13:14:10.729Z,5.17
2018-04-19T13:16:50.376Z,3.97
2018-04-19T13:19:30.014Z,5.33
2018-04-19T13:27:31.183Z,3.50
2018-04-19T13:30:11.585Z,5.43
2018-04-19T13:37:58.276Z,4.00
2018-04-19T13:43:17.399Z,5.93
2018-04-19T13:45:48.699Z,4.23
2018-04-19T13:51:04.454Z,3.83
2018-04-19T13:53:37.579Z,5.97
2018-04-19T13:56:18.120Z,3.23
2018-04-19T13:58:57.651Z,4.20
2018-04-19T14:01:35.244Z,4.67
2018-04-19T14:04:06.633Z,6.73
2018-04-19T14:06:35.619Z,3.17
2018-04-19T14:09:07.085Z,4.27
2018-04-19T14:11:46.925Z,3.77
2018-04-19T14:14:26.221Z,5.60
2018-04-19T14:17:04.780Z,8.00
2018-04-19T14:19:47.449Z,4.53
2018-04-19T14:22:21.459Z,5.53
2018-04-19T14:24:56.581Z,6.27
2018-04-19T14:27:32.623Z,2.47
2018-04-19T14:32:37.361Z,4.33
2018-04-19T14:35:10.533Z,2.77
2018-04-19T14:37:40.689Z,6.53
2018-04-19T14:40:18.806Z,3.80
2018-04-19T14:45:23.849Z,5.17
2018-04-19T14:47:53.664Z,3.63
2018-04-19T14:50:31.849Z,5.60
2018-04-19T15:01:00.009Z,3.13
2018-04-19T15:03:28.597Z,7.93
2018-04-19T15:05:58.493Z,4.77
2018-04-19T15:08:30.333Z,7.13
2018-04-19T15:11:06.537Z,6.80
2018-04-19T15:13:36.215Z,3.97
2018-04-19T15:16:09.293Z,7.13
2018-04-19T15:18:43.212Z,4.27
2018-04-19T15:24:01.623Z,3.47
2018-04-19T15:26:40.025Z,6.97
2018-04-19T15:29:15.397Z,4.87
2018-04-19T15:31:46.331Z,3.80
2018-04-19T15:34:25.582Z,3.90
2018-04-19T15:37:06.235Z,3.87
2018-04-19T15:39:45.132Z,7.30
2018-04-19T15:45:02.748Z,4.27
2018-04-19T15:47:39.304Z,8.17
2018-04-19T15:50:09.950Z,6.60
2018-04-19T15:52:42.718Z,4.47
2018-04-19T15:55:17.785Z,5.40
2018-04-19T15:57:56.275Z,4.53
2018-04-19T16:00:35.588Z,5.70
2018-04-19T16:03:15.130Z,3.77
2018-04-19T16:05:44.934Z,5.33
2018-04-19T16:08:30.471Z,5.87
2018-04-19T16:11:01.310Z,3.53
2018-04-19T16:13:47.055Z,5.70
2018-04-19T16:16:21.054Z,5.90
2018-04-19T16:21:38.809Z,4.20
2018-04-19T16:29:40.473Z,6.00
2018-04-19T16:40:39.662Z,4.40
2018-04-19T16:48:50.745Z,3.87
2018-04-19T17:05:23.764Z,6.57
2018-04-19T17:08:01.648Z,4.07
2018-04-19T17:10:43.877Z,4.07
2018-04-19T17:15:58.938Z,4.00
2018-04-19T17:24:02.493Z,4.17
2018-04-19T17:29:18.718Z,7.00
2018-04-19T17:31:53.200Z,10.47
2018-04-19T17:37:23.549Z,7.77
2018-04-19T17:40:06.534Z,7.40
2018-04-19T17:42:45.857Z,5.37
2018-04-19T17:45:25.708Z,5.70
2018-04-19T17:48:06.019Z,4.07
2018-04-19T17:50:41.372Z,6.07
2018-04-19T17:53:10.858Z,3.33
2018-04-19T17:55:40.144Z,7.43
2018-04-19T17:58:14.672Z,4.27
2018-04-19T18:00:43.904Z,5.37
2018-04-19T18:03:23.650Z,9.27
2018-04-19T18:06:03.458Z,6.37
2018-04-19T18:08:42.690Z,10.23
2018-04-19T18:11:22.100Z,7.93
2018-04-19T18:16:42.475Z,10.97
2018-04-19T18:22:04.997Z,10.97
2018-04-19T18:24:42.305Z,13.13
2018-04-19T18:27:22.589Z,9.73
2018-04-19T18:30:01.880Z,10.37
2018-04-19T18:40:26.981Z,11.10
2018-04-19T18:45:44.781Z,12.65
2018-04-19T18:48:14.093Z,10.17
2018-04-19T18:50:49.536Z,11.37
2018-04-19T18:53:22.072Z,11.80
2018-04-19T18:55:54.777Z,13.20
2018-04-19T19:03:50.646Z,11.90
2018-04-19T19:09:09.370Z,12.83
2018-04-19T19:11:44.693Z,13.27
2018-04-19T19:20:11.984Z,11.83
2018-04-19T19:22:50.117Z,14.70
2018-04-19T19:25:30.208Z,12.80
2018-04-19T19:30:52.913Z,14.87
2018-04-19T19:33:28.209Z,11.53
2018-04-19T19:36:03.469Z,13.73
2018-04-19T19:38:37.990Z,11.37
2018-04-19T19:41:12.376Z,13.57
2018-04-19T19:43:50.201Z,12.53
2018-04-19T19:54:18.130Z,13.23
2018-04-19T19:56:50.141Z,13.77
2018-04-19T19:59:24.972Z,13.63
2018-04-19T20:01:54.431Z,10.20
2018-04-19T20:04:27.786Z,9.67
2018-04-19T20:07:06.110Z,13.20
2018-04-19T20:09:35.931Z,12.47
2018-04-19T20:12:05.631Z,9.37
2018-04-19T20:17:25.744Z,7.43
2018-04-19T20:20:05.145Z,13.57
2018-04-19T20:22:37.451Z,11.70
2018-04-19T20:25:07.783Z,11.17
2018-04-19T20:27:39.471Z,8.13
2018-04-19T20:30:09.357Z,8.97
2018-04-19T20:32:43.106Z,7.57
2018-04-19T20:35:18.989Z,6.77
2018-04-19T20:37:50.910Z,9.00
2018-04-19T20:42:59.181Z,5.57
2018-04-19T20:45:32.421Z,6.77
2018-04-19T20:48:06.715Z,9.87
2018-04-19T20:50:36.302Z,8.97
2018-04-19T20:53:11.444Z,7.47
2018-04-19T20:55:45.552Z,9.80
2018-04-19T20:58:17.262Z,9.63
2018-04-19T21:00:48.244Z,10.73
2018-04-19T21:03:17.039Z,8.03
2018-04-19T21:05:48.080Z,6.00
2018-04-19T21:08:24.951Z,6.87
2018-04-19T21:10:55.207Z,10.10
2018-04-19T21:13:30.264Z,8.70
2018-04-19T21:16:03.550Z,8.93
2018-04-19T21:18:35.303Z,9.17
2018-04-19T21:21:03.880Z,8.20
2018-04-19T21:23:33.386Z,8.90
2018-04-19T21:26:08.449Z,11.87
2018-04-19T21:28:40.442Z,12.07
2018-04-19T21:31:12.363Z,12.23
2018-04-19T21:33:42.088Z,11.10
2018-04-19T21:36:20.525Z,9.43
2018-04-19T21:38:56.107Z,6.40
2018-04-19T21:41:36.773Z,10.07
2018-04-19T21:44:08.684Z,7.10
2018-04-19T21:46:41.790Z,9.63
2018-04-19T21:49:24.343Z,7.87
2018-04-19T21:51:58.238Z,9.67
2018-04-19T21:54:28.621Z,7.90
2018-04-19T21:57:11.452Z,9.10
2018-04-19T21:59:47.600Z,6.47
2018-04-19T22:02:25.772Z,8.47
2018-04-19T22:05:05.150Z,8.53
2018-04-19T22:07:39.780Z,9.80
2018-04-19T22:10:08.942Z,6.80
2018-04-19T22:12:48.088Z,11.10
2018-04-19T22:15:23.661Z,7.10
2018-04-19T22:17:54.899Z,7.50
2018-04-19T22:23:11.050Z,7.53
2018-04-19T22:25:46.201Z,8.60
2018-04-19T22:28:15.638Z,9.93
2018-04-19T22:30:46.800Z,8.00
2018-04-19T22:36:03.098Z,13.50
2018-04-19T22:38:34.969Z,7.23
2018-04-19T22:41:04.159Z,10.13
2018-04-19T22:43:32.970Z,11.13
2018-04-19T22:46:05.521Z,14.80
2018-04-19T22:48:34.833Z,12.57
2018-04-19T22:51:12.858Z,8.20
2018-04-19T22:53:49.715Z,6.23
2018-04-19T22:56:24.331Z,9.63
2018-04-19T22:59:00.364Z,10.03
2018-04-19T23:01:35.114Z,8.20
2018-04-19T23:04:04.323Z,9.87
2018-04-19T23:06:35.055Z,10.93
2018-04-19T23:09:05.108Z,9.10
2018-04-19T23:11:45.293Z,10.27
2018-04-19T23:14:16.190Z,10.00
2018-04-19T23:16:55.917Z,11.50
2018-04-19T23:19:27.974Z,9.67
2018-04-19T23:21:58.649Z,11.93
2018-04-19T23:24:34.088Z,10.63
2018-04-19T23:27:09.089Z,10.03
2018-04-19T23:29:40.604Z,6.90
2018-04-19T23:32:15.774Z,10.87
2018-04-19T23:34:44.629Z,10.40
2018-04-19T23:39:49.672Z,13.70
2018-04-19T23:42:26.817Z,11.33
2018-04-19T23:44:58.388Z,9.40
2018-04-19T23:47:32.792Z,8.80
2018-04-19T23:50:08.017Z,13.93
2018-04-19T23:52:39.700Z,7.90
2018-04-19T23:55:14.536Z,9.40
2018-04-19T23:57:51.101Z,8.97
